createdAt,value
2023-04-09T00:01:12.496Z,99.90
2023-04-09T00:03:43.480Z,99.90
2023-04-09T00:06:12.569Z,99.90
2023-04-09T00:08:40.072Z,99.90
2023-04-09T00:11:07.484Z,99.90
2023-04-09T00:13:39.735Z,99.90
2023-04-09T00:16:08.825Z,99.80
2023-04-09T00:18:36.630Z,99.60
2023-04-09T00:21:04.191Z,99.50
2023-04-09T00:23:31.734Z,99.30
2023-04-09T00:25:59.255Z,99.60
2023-04-09T00:28:26.709Z,99.70
2023-04-09T00:30:54.074Z,99.70
2023-04-09T00:33:21.536Z,99.80
2023-04-09T00:35:49.068Z,99.90
2023-04-09T00:38:16.867Z,99.90
2023-04-09T00:40:44.328Z,99.90
2023-04-09T00:43:12.669Z,99.90
2023-04-09T00:45:40.111Z,99.90
2023-04-09T00:48:07.847Z,99.90
2023-04-09T00:50:35.593Z,99.90
2023-04-09T00:53:03.118Z,99.90
2023-04-09T00:55:31.124Z,99.90
2023-04-09T00:57:58.518Z,99.90
2023-04-09T01:00:26.739Z,99.80
2023-04-09T01:02:56.492Z,99.80
2023-04-09T01:05:34.366Z,99.80
2023-04-09T01:08:22.624Z,99.90
2023-04-09T01:11:15.608Z,99.90
2023-04-09T01:13:56.399Z,99.90
2023-04-09T01:16:24.813Z,99.90
2023-04-09T01:18:59.929Z,99.90
2023-04-09T01:21:32.760Z,99.90
2023-04-09T01:24:09.792Z,99.90
2023-04-09T01:27:01.724Z,99.90
2023-04-09T01:29:33.022Z,99.90
2023-04-09T01:32:03.289Z,99.90
2023-04-09T01:34:31.700Z,99.90
2023-04-09T01:37:02.578Z,99.90
2023-04-09T01:39:30.774Z,99.90
2023-04-09T01:41:58.279Z,99.90
2023-04-09T01:44:27.118Z,99.90
2023-04-09T01:46:56.087Z,99.90
2023-04-09T01:49:23.545Z,99.90
2023-04-09T01:51:52.119Z,99.90
2023-04-09T01:54:19.607Z,99.90
2023-04-09T01:56:48.588Z,99.90
2023-04-09T01:59:16.586Z,99.90
2023-04-09T02:02:05.879Z,99.90
2023-04-09T02:04:36.990Z,99.90
2023-04-09T02:07:11.376Z,99.90
2023-04-09T02:09:41.456Z,99.90
2023-04-09T02:12:13.836Z,99.90
2023-04-09T02:14:42.852Z,99.90
2023-04-09T02:17:10.493Z,99.90
2023-04-09T02:19:45.710Z,99.90
2023-04-09T02:22:13.920Z,99.90
2023-04-09T02:24:41.599Z,99.90
2023-04-09T02:27:09.350Z,99.90
2023-04-09T02:29:36.785Z,99.90
2023-04-09T02:32:04.402Z,99.90
2023-04-09T02:34:31.845Z,99.90
2023-04-09T02:36:59.144Z,99.90
2023-04-09T02:39:27.379Z,99.90
2023-04-09T02:41:54.847Z,99.90
2023-04-09T02:44:22.548Z,99.90
2023-04-09T02:46:52.725Z,99.90
2023-04-09T02:49:20.112Z,99.90
2023-04-09T02:51:47.409Z,99.90
2023-04-09T02:54:15.123Z,99.90
2023-04-09T02:56:42.704Z,99.90
2023-04-09T02:59:10.107Z,99.90
2023-04-09T03:01:37.512Z,99.90
2023-04-09T03:04:05.076Z,99.90
2023-04-09T03:06:32.881Z,99.90
2023-04-09T03:09:00.333Z,99.90
2023-04-09T03:11:27.809Z,99.90
2023-04-09T03:13:55.216Z,99.90
2023-04-09T03:16:25.138Z,99.90
2023-04-09T03:18:52.888Z,99.90
2023-04-09T03:21:21.204Z,99.90
2023-04-09T03:23:48.688Z,99.90
2023-04-09T03:26:16.537Z,99.90
2023-04-09T03:28:43.985Z,99.90
2023-04-09T03:31:11.491Z,99.90
2023-04-09T03:33:38.869Z,99.90
2023-04-09T03:36:06.635Z,99.90
2023-04-09T03:38:34.096Z,99.90
2023-04-09T03:41:01.480Z,99.90
2023-04-09T03:43:28.929Z,99.90
2023-04-09T03:45:56.387Z,99.90
2023-04-09T03:48:23.862Z,99.90
2023-04-09T03:50:53.795Z,99.90
2023-04-09T03:53:21.316Z,99.90
2023-04-09T03:55:48.728Z,99.90
2023-04-09T03:58:16.147Z,99.90
2023-04-09T04:00:43.784Z,99.90
2023-04-09T04:03:12.395Z,99.90
2023-04-09T04:05:39.922Z,99.90
2023-04-09T04:08:07.291Z,99.90
2023-04-09T04:10:35.303Z,99.90
2023-04-09T04:13:03.110Z,99.90
2023-04-09T04:15:30.880Z,99.90
2023-04-09T04:17:59.647Z,99.90
2023-04-09T04:20:27.115Z,99.90
2023-04-09T04:22:54.453Z,99.90
2023-04-09T04:25:21.839Z,99.90
2023-04-09T04:27:49.164Z,99.90
2023-04-09T04:30:16.611Z,99.90
2023-04-09T04:32:44.042Z,99.90
2023-04-09T04:35:11.414Z,99.90
2023-04-09T04:37:38.713Z,99.90
2023-04-09T04:40:07.050Z,99.90
2023-04-09T04:42:34.999Z,99.90
2023-04-09T04:45:02.338Z,99.90
2023-04-09T04:47:29.694Z,99.90
2023-04-09T04:49:57.033Z,99.90
2023-04-09T04:52:24.545Z,99.90
2023-04-09T04:54:51.965Z,99.90
2023-04-09T04:57:19.420Z,99.90
2023-04-09T04:59:46.922Z,99.90
2023-04-09T05:02:14.382Z,99.90
2023-04-09T05:04:42.184Z,99.90
2023-04-09T05:07:09.506Z,99.90
2023-04-09T05:09:36.824Z,99.90
2023-04-09T05:12:04.581Z,99.90
2023-04-09T05:14:32.072Z,99.90
2023-04-09T05:16:59.901Z,99.90
2023-04-09T05:19:27.525Z,99.90
2023-04-09T05:21:54.978Z,99.90
2023-04-09T05:24:22.597Z,99.90
2023-04-09T05:26:50.554Z,99.90
2023-04-09T05:29:17.969Z,99.90
2023-04-09T05:31:45.493Z,99.90
2023-04-09T05:34:13.019Z,99.90
2023-04-09T05:36:40.651Z,99.90
2023-04-09T05:39:08.065Z,99.90
2023-04-09T05:41:37.453Z,99.90
2023-04-09T05:44:04.946Z,99.90
2023-04-09T05:46:32.489Z,99.90
2023-04-09T05:48:59.843Z,99.90
2023-04-09T05:51:27.481Z,99.90
2023-04-09T05:53:54.951Z,99.90
2023-04-09T05:56:25.311Z,99.90
2023-04-09T05:58:52.846Z,99.90
2023-04-09T06:01:21.214Z,99.90
2023-04-09T06:03:48.656Z,99.90
2023-04-09T06:06:17.549Z,99.90
2023-04-09T06:08:45.464Z,99.90
2023-04-09T06:11:13.414Z,99.90
2023-04-09T06:13:41.583Z,99.90
2023-04-09T06:16:09.810Z,99.90
2023-04-09T06:18:37.791Z,99.90
2023-04-09T06:21:09.741Z,99.90
2023-04-09T06:23:37.362Z,99.90
2023-04-09T06:26:04.792Z,99.90
2023-04-09T06:28:33.589Z,99.90
2023-04-09T06:31:01.233Z,99.90
2023-04-09T06:33:28.572Z,99.90
2023-04-09T06:35:56.401Z,99.60
2023-04-09T06:38:23.713Z,99.40
2023-04-09T06:40:52.132Z,99.30
2023-04-09T06:43:19.582Z,99.30
2023-04-09T06:45:47.522Z,98.80
2023-04-09T06:48:14.827Z,98.60
2023-04-09T06:50:42.153Z,98.30
2023-04-09T06:53:09.459Z,97.80
2023-04-09T06:55:36.819Z,97.70
2023-04-09T06:58:04.349Z,97.60
2023-04-09T07:00:32.198Z,97.30
2023-04-09T07:02:59.936Z,97.20
2023-04-09T07:05:27.635Z,96.60
2023-04-09T07:07:55.033Z,96.50
2023-04-09T07:10:22.485Z,95.80
2023-04-09T07:12:49.879Z,95.40
2023-04-09T07:15:17.314Z,94.60
2023-04-09T07:17:44.875Z,93.90
2023-04-09T07:20:12.487Z,94.30
2023-04-09T07:22:39.867Z,94.10
2023-04-09T07:25:07.942Z,93.60
2023-04-09T07:27:35.957Z,93.00
2023-04-09T07:30:03.862Z,92.50
2023-04-09T07:32:31.457Z,92.30
2023-04-09T07:34:59.628Z,92.20
2023-04-09T07:37:27.422Z,91.60
2023-04-09T07:39:54.966Z,91.50
2023-04-09T07:42:22.591Z,91.50
2023-04-09T07:44:50.010Z,91.10
2023-04-09T07:47:17.400Z,90.60
2023-04-09T07:49:44.814Z,90.00
2023-04-09T07:52:12.191Z,89.60
2023-04-09T07:54:39.491Z,89.10
2023-04-09T07:57:07.065Z,89.60
2023-04-09T07:59:35.263Z,88.10
2023-04-09T08:02:02.985Z,87.70
2023-04-09T08:04:30.787Z,87.10
2023-04-09T08:06:58.267Z,88.30
2023-04-09T08:09:25.752Z,86.80
2023-04-09T08:11:53.434Z,86.20
2023-04-09T08:14:21.398Z,86.90
2023-04-09T08:16:50.561Z,86.80
2023-04-09T08:19:20.197Z,85.50
2023-04-09T08:21:50.546Z,85.40
2023-04-09T08:24:18.411Z,84.30
2023-04-09T08:26:46.201Z,84.70
2023-04-09T08:29:15.055Z,83.70
2023-04-09T08:31:43.144Z,83.60
2023-04-09T08:34:10.693Z,83.90
2023-04-09T08:36:38.450Z,83.70
2023-04-09T08:39:05.784Z,83.70
2023-04-09T08:41:34.517Z,83.80
2023-04-09T08:44:02.123Z,82.80
2023-04-09T08:46:29.483Z,82.90
2023-04-09T08:48:57.355Z,82.40
2023-04-09T08:51:25.758Z,82.80
2023-04-09T08:53:57.634Z,81.50
2023-04-09T08:56:26.567Z,81.90
2023-04-09T08:58:55.411Z,83.00
2023-04-09T09:01:27.736Z,82.50
2023-04-09T09:04:06.855Z,83.00
2023-04-09T09:06:38.933Z,82.00
2023-04-09T09:09:16.695Z,80.90
2023-04-09T09:11:50.310Z,81.10
2023-04-09T09:14:19.472Z,80.30
2023-04-09T09:16:56.169Z,80.30
2023-04-09T09:19:26.956Z,80.90
2023-04-09T09:22:02.096Z,81.30
2023-04-09T09:24:30.544Z,81.10
2023-04-09T09:26:59.026Z,80.50
2023-04-09T09:29:28.613Z,80.50
2023-04-09T09:31:56.774Z,79.60
2023-04-09T09:34:26.228Z,80.60
2023-04-09T09:36:53.734Z,80.20
2023-04-09T09:39:22.348Z,78.90
2023-04-09T09:42:08.007Z,78.90
2023-04-09T09:44:35.355Z,78.50
2023-04-09T09:47:05.010Z,79.00
2023-04-09T09:49:32.328Z,78.50
2023-04-09T09:52:03.051Z,78.30
2023-04-09T09:54:40.530Z,78.70
2023-04-09T09:57:10.275Z,79.10
2023-04-09T09:59:39.969Z,77.30
2023-04-09T10:02:19.175Z,77.10
2023-04-09T10:04:49.008Z,76.50
2023-04-09T10:07:16.669Z,76.10
2023-04-09T10:09:53.058Z,74.20
2023-04-09T10:12:25.133Z,72.70
2023-04-09T10:14:53.273Z,72.80
2023-04-09T10:17:21.911Z,73.60
2023-04-09T10:20:20.931Z,73.30
2023-04-09T10:22:51.181Z,72.20
2023-04-09T10:25:19.058Z,72.00
2023-04-09T10:27:49.228Z,69.40
2023-04-09T10:30:37.318Z,70.10
2023-04-09T10:33:17.590Z,68.40
2023-04-09T10:35:47.970Z,67.50
2023-04-09T10:38:15.732Z,67.30
2023-04-09T10:40:51.551Z,66.60
2023-04-09T10:43:23.723Z,66.50
2023-04-09T10:45:54.547Z,67.10
2023-04-09T10:48:26.268Z,65.60
2023-04-09T10:50:53.588Z,65.40
2023-04-09T10:53:25.811Z,65.00
2023-04-09T10:55:54.272Z,66.00
2023-04-09T10:58:21.756Z,65.50
2023-04-09T11:00:50.975Z,65.70
2023-04-09T11:03:27.772Z,65.60
2023-04-09T11:06:02.543Z,65.00
2023-04-09T11:08:33.920Z,64.90
2023-04-09T11:11:02.555Z,65.00
2023-04-09T11:13:31.724Z,64.70
2023-04-09T11:16:01.613Z,64.10
2023-04-09T11:18:30.550Z,63.50
2023-04-09T11:20:59.905Z,63.00
2023-04-09T11:23:27.843Z,60.90
2023-04-09T11:25:56.217Z,62.10
2023-04-09T11:28:24.398Z,60.50
2023-04-09T11:30:52.435Z,59.40
2023-04-09T11:33:20.571Z,60.30
2023-04-09T11:35:49.075Z,59.60
2023-04-09T11:38:16.836Z,59.90
2023-04-09T11:40:51.681Z,59.10
2023-04-09T11:43:21.241Z,59.30
2023-04-09T11:45:49.242Z,59.00
2023-04-09T11:48:18.704Z,58.30
2023-04-09T11:50:47.529Z,58.40
2023-04-09T11:53:21.178Z,58.80
2023-04-09T11:55:51.538Z,57.90
2023-04-09T11:58:22.290Z,57.50
2023-04-09T12:00:52.530Z,57.30
2023-04-09T12:03:27.544Z,58.00
2023-04-09T12:05:55.270Z,57.00
2023-04-09T12:08:25.496Z,58.20
2023-04-09T12:10:54.128Z,57.70
2023-04-09T12:13:22.075Z,57.80
2023-04-09T12:15:50.218Z,57.90
2023-04-09T12:18:18.942Z,57.90
2023-04-09T12:20:49.755Z,58.10
2023-04-09T12:23:17.346Z,58.40
2023-04-09T12:25:45.747Z,57.30
2023-04-09T12:28:18.757Z,58.20
2023-04-09T12:30:47.120Z,58.10
2023-04-09T12:33:14.607Z,58.70
2023-04-09T12:35:42.250Z,59.90
2023-04-09T12:38:09.684Z,58.80
2023-04-09T12:40:37.309Z,60.00
2023-04-09T12:43:05.494Z,60.30
2023-04-09T12:45:33.841Z,60.60
2023-04-09T12:48:01.613Z,61.20
2023-04-09T12:50:29.184Z,61.40
2023-04-09T12:52:56.614Z,61.10
2023-04-09T12:55:24.116Z,61.30
2023-04-09T12:57:52.093Z,61.60
2023-04-09T13:00:19.647Z,62.20
2023-04-09T13:02:51.724Z,62.90
2023-04-09T13:05:19.135Z,63.60
2023-04-09T13:07:47.059Z,64.90
2023-04-09T13:10:14.405Z,65.50
2023-04-09T13:12:41.762Z,65.50
2023-04-09T13:15:09.481Z,66.20
2023-04-09T13:17:36.890Z,65.40
2023-04-09T13:20:04.870Z,64.50
2023-04-09T13:22:32.381Z,65.10
2023-04-09T13:24:59.808Z,63.90
2023-04-09T13:27:30.109Z,64.40
2023-04-09T13:29:57.588Z,64.20
2023-04-09T13:32:25.081Z,65.20
2023-04-09T13:34:54.251Z,64.80
2023-04-09T13:37:21.639Z,65.00
2023-04-09T13:39:50.614Z,64.90
2023-04-09T13:42:18.554Z,64.70
2023-04-09T13:44:45.972Z,65.90
2023-04-09T13:47:14.118Z,64.80
2023-04-09T13:49:42.046Z,65.10
2023-04-09T13:52:10.781Z,65.70
2023-04-09T13:54:38.331Z,64.20
2023-04-09T13:57:05.805Z,65.20
2023-04-09T13:59:33.176Z,65.10
2023-04-09T14:02:00.998Z,65.80
2023-04-09T14:04:28.440Z,66.30
2023-04-09T14:06:57.285Z,66.60
2023-04-09T14:09:24.817Z,67.00
2023-04-09T14:11:52.231Z,66.70
2023-04-09T14:14:20.009Z,66.70
2023-04-09T14:16:48.589Z,67.40
2023-04-09T14:19:16.051Z,68.00
2023-04-09T14:21:43.563Z,67.60
2023-04-09T14:24:11.131Z,67.50
2023-04-09T14:26:38.443Z,67.10
2023-04-09T14:29:05.784Z,66.60
2023-04-09T14:31:33.194Z,66.20
2023-04-09T14:34:00.725Z,65.70
2023-04-09T14:36:28.167Z,66.30
2023-04-09T14:38:57.777Z,66.40
2023-04-09T14:41:26.260Z,66.60
2023-04-09T14:43:53.600Z,67.00
2023-04-09T14:46:22.298Z,67.40
2023-04-09T14:48:49.759Z,67.10
2023-04-09T14:51:17.661Z,67.00
2023-04-09T14:53:45.059Z,67.00
2023-04-09T14:56:12.452Z,67.00
2023-04-09T14:58:40.171Z,67.10
2023-04-09T15:01:07.764Z,67.10
2023-04-09T15:03:35.421Z,67.20
2023-04-09T15:06:03.221Z,67.40
2023-04-09T15:08:30.680Z,66.50
2023-04-09T15:10:57.981Z,66.90
2023-04-09T15:13:25.438Z,67.10
2023-04-09T15:15:53.061Z,67.70
2023-04-09T15:18:21.835Z,67.70
2023-04-09T15:20:49.465Z,67.60
2023-04-09T15:23:16.950Z,67.70
2023-04-09T15:25:44.346Z,67.40
2023-04-09T15:28:11.855Z,67.40
2023-04-09T15:30:39.472Z,67.70
2023-04-09T15:33:06.893Z,67.70
2023-04-09T15:35:35.173Z,67.90
2023-04-09T15:38:02.607Z,67.50
2023-04-09T15:40:31.209Z,67.10
2023-04-09T15:42:58.569Z,68.10
2023-04-09T15:45:26.679Z,68.60
2023-04-09T15:47:54.301Z,68.30
2023-04-09T15:50:21.926Z,67.80
2023-04-09T15:52:49.313Z,67.40
2023-04-09T15:55:17.040Z,67.80
2023-04-09T15:57:47.091Z,68.80
2023-04-09T16:00:15.556Z,68.30
2023-04-09T16:02:43.343Z,68.30
2023-04-09T16:05:10.700Z,68.00
2023-04-09T16:07:39.735Z,67.40
2023-04-09T16:10:07.881Z,67.70
2023-04-09T16:12:35.444Z,68.60
2023-04-09T16:15:03.267Z,67.80
2023-04-09T16:17:31.070Z,68.20
2023-04-09T16:19:58.574Z,68.30
2023-04-09T17:06:50.458Z,69.00
2023-04-09T17:09:17.748Z,69.80
2023-04-09T17:11:45.037Z,70.70
2023-04-09T17:14:12.546Z,96.90
2023-04-09T17:16:40.143Z,71.70
2023-04-09T17:19:08.966Z,72.30
2023-04-09T17:21:36.604Z,72.50
2023-04-09T17:24:04.157Z,73.70
2023-04-09T17:26:32.171Z,72.90
2023-04-09T17:28:59.549Z,73.50
2023-04-09T17:31:27.804Z,91.00
2023-04-09T17:33:55.453Z,94.30
2023-04-09T17:38:53.236Z,98.60
2023-04-09T17:41:20.793Z,91.60
2023-04-09T17:43:48.328Z,89.40
2023-04-09T17:46:17.187Z,76.10
2023-04-09T17:48:44.928Z,75.60
2023-04-09T17:51:18.885Z,76.40
2023-04-09T17:53:47.641Z,76.80
2023-04-09T17:56:18.408Z,75.30
2023-04-09T17:58:46.987Z,75.80
2023-04-09T18:01:14.994Z,75.00
2023-04-09T18:03:43.106Z,75.60
2023-04-09T18:06:10.872Z,76.70
2023-04-09T18:08:38.272Z,76.90
2023-04-09T18:11:12.863Z,81.50
2023-04-09T18:16:12.808Z,74.70
2023-04-09T18:18:40.793Z,75.10
2023-04-09T18:21:08.357Z,74.80
2023-04-09T18:23:35.904Z,74.70
2023-04-09T18:26:03.399Z,74.80
2023-04-09T18:28:30.781Z,74.70
2023-04-09T18:30:58.958Z,75.10
2023-04-09T18:33:27.218Z,75.10
2023-04-09T18:35:54.591Z,75.80
2023-04-09T18:38:22.100Z,75.50
2023-04-09T18:40:49.575Z,75.40
2023-04-09T18:43:16.919Z,75.80
2023-04-09T18:45:44.277Z,75.50
2023-04-09T18:48:11.598Z,76.30
2023-04-09T18:50:39.021Z,76.60
2023-04-09T18:53:07.281Z,76.60
2023-04-09T18:55:38.376Z,76.70
2023-04-09T18:58:12.861Z,75.90
2023-04-09T19:03:08.823Z,75.10
2023-04-09T19:05:36.502Z,76.40
2023-04-09T19:08:06.964Z,77.10
2023-04-09T19:10:34.334Z,76.90
2023-04-09T19:13:02.210Z,76.20
2023-04-09T19:15:29.786Z,76.20
2023-04-09T19:17:57.704Z,76.40
2023-04-09T19:20:25.125Z,76.20
2023-04-09T19:22:57.488Z,81.90
2023-04-09T19:25:25.077Z,82.60
2023-04-09T19:27:54.261Z,80.90
2023-04-09T19:30:21.902Z,81.50
2023-04-09T19:32:49.582Z,80.70
2023-04-09T19:35:17.055Z,82.40
2023-04-09T19:37:45.048Z,83.80
2023-04-09T19:40:15.713Z,83.30
2023-04-09T19:42:43.149Z,82.80
2023-04-09T19:45:11.153Z,83.30
2023-04-09T19:47:38.823Z,82.40
2023-04-09T19:52:34.579Z,87.00
2023-04-09T19:55:05.102Z,88.00
2023-04-09T19:57:32.826Z,88.20
2023-04-09T20:00:00.292Z,88.00
2023-04-09T20:02:28.340Z,90.20
2023-04-09T20:04:56.131Z,89.10
2023-04-09T20:07:23.446Z,93.60
2023-04-09T20:09:50.975Z,91.30
2023-04-09T20:12:19.423Z,90.50
2023-04-09T20:14:47.172Z,89.70
2023-04-09T20:17:14.627Z,89.00
2023-04-09T20:19:42.143Z,90.20
2023-04-09T20:22:09.447Z,93.60
2023-04-09T20:24:37.168Z,91.10
2023-04-09T20:27:05.045Z,87.70
2023-04-09T20:29:32.343Z,88.70
2023-04-09T20:31:59.771Z,89.30
2023-04-09T20:34:27.567Z,94.50
2023-04-09T20:36:55.627Z,99.70
2023-04-09T20:39:26.846Z,93.20
2023-04-09T20:41:55.332Z,92.30
2023-04-09T20:44:24.669Z,91.80
2023-04-09T20:46:52.759Z,92.80
2023-04-09T20:49:20.448Z,96.00
2023-04-09T20:51:47.878Z,96.20
2023-04-09T20:54:18.061Z,95.90
2023-04-09T20:56:45.551Z,95.40
2023-04-09T20:59:12.860Z,95.60
2023-04-09T21:01:40.468Z,96.40
2023-04-09T21:06:36.430Z,99.90
2023-04-09T21:09:03.867Z,95.40
2023-04-09T21:11:31.334Z,96.00
2023-04-09T21:13:59.228Z,96.60
2023-04-09T21:18:56.587Z,98.70
2023-04-09T21:21:24.274Z,97.40
2023-04-09T21:23:51.736Z,95.60
2023-04-09T21:26:19.143Z,95.80
2023-04-09T21:28:48.376Z,98.20
2023-04-09T21:31:16.120Z,97.30
2023-04-09T21:33:43.743Z,96.30
2023-04-09T21:36:11.284Z,95.80
2023-04-09T21:38:38.792Z,95.60
2023-04-09T21:41:06.307Z,95.40
2023-04-09T21:43:34.800Z,95.90
2023-04-09T21:46:03.195Z,96.00
2023-04-09T21:48:31.009Z,95.80
2023-04-09T21:50:58.769Z,95.30
2023-04-09T21:53:27.316Z,95.20
2023-04-09T21:55:54.676Z,95.00
2023-04-09T21:58:22.387Z,94.90
2023-04-09T22:00:49.780Z,94.90
2023-04-09T22:03:17.316Z,95.30
2023-04-09T22:05:44.850Z,95.20
2023-04-09T22:08:13.218Z,95.30
2023-04-09T22:10:40.640Z,95.30
2023-04-09T22:13:08.198Z,95.30
2023-04-09T22:15:35.674Z,95.10
2023-04-09T22:18:03.814Z,95.00
2023-04-09T22:20:31.282Z,94.80
2023-04-09T22:22:58.836Z,95.30
2023-04-09T22:25:26.197Z,95.10
2023-04-09T22:27:53.903Z,95.30
2023-04-09T22:30:22.029Z,95.10
2023-04-09T22:32:50.195Z,95.40
2023-04-09T22:35:18.481Z,95.50
2023-04-09T22:37:47.253Z,95.60
2023-04-09T22:40:16.125Z,95.70
2023-04-09T22:42:48.640Z,95.00
2023-04-09T22:45:16.256Z,96.20
2023-04-09T22:47:43.778Z,95.90
2023-04-09T22:50:11.780Z,95.40
2023-04-09T22:52:39.206Z,95.70
2023-04-09T22:55:10.252Z,94.30
2023-04-09T22:57:38.517Z,93.90
2023-04-09T23:00:06.700Z,94.70
2023-04-09T23:02:34.336Z,94.80
2023-04-09T23:05:02.598Z,95.40
2023-04-09T23:07:30.210Z,94.80
2023-04-09T23:09:57.600Z,94.80
2023-04-09T23:12:24.997Z,95.20
2023-04-09T23:14:54.031Z,95.30
2023-04-09T23:17:22.912Z,96.10
2023-04-09T23:19:52.696Z,95.90
2023-04-09T23:22:20.134Z,97.10
2023-04-09T23:24:47.479Z,97.80
2023-04-09T23:27:14.995Z,98.60
2023-04-09T23:29:42.512Z,99.50
2023-04-09T23:32:10.146Z,97.20
2023-04-09T23:34:37.589Z,96.30
2023-04-09T23:37:04.916Z,96.20
2023-04-09T23:39:32.242Z,95.80
2023-04-09T23:41:59.700Z,95.90
2023-04-09T23:44:27.394Z,95.70
2023-04-09T23:46:54.845Z,96.00
2023-04-09T23:49:22.836Z,96.10
2023-04-09T23:51:51.582Z,96.40
2023-04-09T23:54:19.027Z,96.40
2023-04-09T23:56:47.040Z,96.60
2023-04-09T23:59:14.565Z,97.10
